sensor_id;sensor_type;location;lat;lon;timestamp;pressure;altitude;pressure_sealevel;temperature;humidity
83483;BME280;73420;32.678;-85.380;2023-10-19T00:01:45;98936.87;;;19.23;36.16
83483;BME280;73420;32.678;-85.380;2023-10-19T00:04:10;98938.95;;;19.45;37.07
83483;BME280;73420;32.678;-85.380;2023-10-19T00:06:35;98938.11;;;19.39;37.34
83483;BME280;73420;32.678;-85.380;2023-10-19T00:09:00;98937.98;;;19.28;36.60
83483;BME280;73420;32.678;-85.380;2023-10-19T00:11:26;98939.92;;;19.35;37.43
83483;BME280;73420;32.678;-85.380;2023-10-19T00:13:52;98939.10;;;19.10;37.29
83483;BME280;73420;32.678;-85.380;2023-10-19T00:16:17;98940.18;;;19.00;37.67
83483;BME280;73420;32.678;-85.380;2023-10-19T00:18:42;98941.56;;;19.09;37.31
83483;BME280;73420;32.678;-85.380;2023-10-19T00:21:08;98942.46;;;19.05;37.52
83483;BME280;73420;32.678;-85.380;2023-10-19T00:23:33;98942.92;;;19.10;37.55
83483;BME280;73420;32.678;-85.380;2023-10-19T00:26:00;98940.92;;;19.07;37.25
83483;BME280;73420;32.678;-85.380;2023-10-19T00:28:24;98944.71;;;19.29;36.13
83483;BME280;73420;32.678;-85.380;2023-10-19T00:30:50;98948.86;;;19.53;35.52
83483;BME280;73420;32.678;-85.380;2023-10-19T00:33:15;98950.28;;;19.28;35.58
83483;BME280;73420;32.678;-85.380;2023-10-19T00:35:40;98951.25;;;19.15;37.72
83483;BME280;73420;32.678;-85.380;2023-10-19T00:38:06;98953.37;;;19.32;36.40
83483;BME280;73420;32.678;-85.380;2023-10-19T00:40:31;98952.52;;;18.94;37.71
83483;BME280;73420;32.678;-85.380;2023-10-19T00:42:56;98956.28;;;19.00;38.06
83483;BME280;73420;32.678;-85.380;2023-10-19T00:45:22;98954.17;;;18.86;38.91
83483;BME280;73420;32.678;-85.380;2023-10-19T00:47:47;98955.21;;;19.07;38.98
83483;BME280;73420;32.678;-85.380;2023-10-19T00:50:13;98954.06;;;18.90;38.71
83483;BME280;73420;32.678;-85.380;2023-10-19T00:52:38;98951.47;;;18.85;39.24
83483;BME280;73420;32.678;-85.380;2023-10-19T00:55:04;98950.77;;;18.41;37.93
83483;BME280;73420;32.678;-85.380;2023-10-19T00:57:29;98952.54;;;19.15;38.11
83483;BME280;73420;32.678;-85.380;2023-10-19T00:59:54;98951.61;;;18.87;39.22
83483;BME280;73420;32.678;-85.380;2023-10-19T01:02:20;98952.59;;;18.32;38.11
83483;BME280;73420;32.678;-85.380;2023-10-19T01:04:47;98955.97;;;18.80;38.46
83483;BME280;73420;32.678;-85.380;2023-10-19T01:07:10;98955.74;;;18.64;37.02
83483;BME280;73420;32.678;-85.380;2023-10-19T01:09:35;98960.33;;;19.19;35.56
83483;BME280;73420;32.678;-85.380;2023-10-19T01:12:01;98961.98;;;18.73;35.51
83483;BME280;73420;32.678;-85.380;2023-10-19T01:14:26;98967.97;;;18.88;36.43
83483;BME280;73420;32.678;-85.380;2023-10-19T01:16:51;98972.52;;;18.81;36.30
83483;BME280;73420;32.678;-85.380;2023-10-19T01:19:17;98972.89;;;18.79;36.83
83483;BME280;73420;32.678;-85.380;2023-10-19T01:21:43;98973.94;;;18.50;36.91
83483;BME280;73420;32.678;-85.380;2023-10-19T01:24:08;98973.62;;;18.54;38.55
83483;BME280;73420;32.678;-85.380;2023-10-19T01:26:33;98974.62;;;18.63;39.62
83483;BME280;73420;32.678;-85.380;2023-10-19T01:28:58;98979.76;;;18.61;38.48
83483;BME280;73420;32.678;-85.380;2023-10-19T01:31:24;98980.96;;;18.55;38.21
83483;BME280;73420;32.678;-85.380;2023-10-19T01:33:49;98982.94;;;18.44;37.98
83483;BME280;73420;32.678;-85.380;2023-10-19T01:36:14;98984.95;;;18.37;38.54
83483;BME280;73420;32.678;-85.380;2023-10-19T01:38:41;98985.65;;;18.14;38.41
83483;BME280;73420;32.678;-85.380;2023-10-19T01:41:07;98989.02;;;18.48;38.12
83483;BME280;73420;32.678;-85.380;2023-10-19T01:43:30;98989.78;;;18.10;39.41
83483;BME280;73420;32.678;-85.380;2023-10-19T01:45:56;98989.71;;;18.11;39.50
83483;BME280;73420;32.678;-85.380;2023-10-19T01:48:21;98989.22;;;17.74;38.89
83483;BME280;73420;32.678;-85.380;2023-10-19T01:50:47;98985.50;;;17.98;39.81
83483;BME280;73420;32.678;-85.380;2023-10-19T01:53:12;98987.32;;;18.22;39.12
83483;BME280;73420;32.678;-85.380;2023-10-19T01:55:38;98986.12;;;18.14;38.63
83483;BME280;73420;32.678;-85.380;2023-10-19T01:58:03;98988.13;;;18.32;36.85
83483;BME280;73420;32.678;-85.380;2023-10-19T02:00:28;98986.69;;;18.36;36.33
83483;BME280;73420;32.678;-85.380;2023-10-19T02:02:53;98988.47;;;18.78;35.53
83483;BME280;73420;32.678;-85.380;2023-10-19T02:05:18;98991.93;;;18.80;35.27
83483;BME280;73420;32.678;-85.380;2023-10-19T02:07:43;98993.52;;;18.81;36.58
83483;BME280;73420;32.678;-85.380;2023-10-19T02:10:09;98996.69;;;18.89;35.85
83483;BME280;73420;32.678;-85.380;2023-10-19T02:12:35;99000.55;;;18.59;36.33
83483;BME280;73420;32.678;-85.380;2023-10-19T02:15:00;99001.33;;;18.49;36.11
83483;BME280;73420;32.678;-85.380;2023-10-19T02:17:26;99003.34;;;18.43;35.74
83483;BME280;73420;32.678;-85.380;2023-10-19T02:19:51;99006.86;;;18.38;36.31
83483;BME280;73420;32.678;-85.380;2023-10-19T02:22:16;99011.14;;;18.51;36.41
83483;BME280;73420;32.678;-85.380;2023-10-19T02:24:42;99013.21;;;17.92;38.38
83483;BME280;73420;32.678;-85.380;2023-10-19T02:27:07;99014.29;;;18.33;38.39
83483;BME280;73420;32.678;-85.380;2023-10-19T02:29:32;99016.74;;;18.10;38.21
83483;BME280;73420;32.678;-85.380;2023-10-19T02:31:57;99015.53;;;18.16;37.58
83483;BME280;73420;32.678;-85.380;2023-10-19T02:34:23;99015.60;;;18.20;37.40
83483;BME280;73420;32.678;-85.380;2023-10-19T02:36:49;99013.90;;;18.14;36.67
83483;BME280;73420;32.678;-85.380;2023-10-19T02:39:15;99015.74;;;18.04;36.89
83483;BME280;73420;32.678;-85.380;2023-10-19T02:41:41;99016.75;;;18.13;37.92
83483;BME280;73420;32.678;-85.380;2023-10-19T02:44:09;99017.13;;;18.11;37.08
83483;BME280;73420;32.678;-85.380;2023-10-19T02:46:31;99022.95;;;18.11;36.54
83483;BME280;73420;32.678;-85.380;2023-10-19T02:48:56;99024.79;;;17.95;37.05
83483;BME280;73420;32.678;-85.380;2023-10-19T02:51:22;99026.94;;;17.94;37.75
83483;BME280;73420;32.678;-85.380;2023-10-19T02:53:48;99024.80;;;18.23;37.84
83483;BME280;73420;32.678;-85.380;2023-10-19T02:56:14;99024.95;;;18.15;38.55
83483;BME280;73420;32.678;-85.380;2023-10-19T02:58:41;99022.28;;;17.42;40.14
83483;BME280;73420;32.678;-85.380;2023-10-19T03:01:13;99021.84;;;17.60;39.42
83483;BME280;73420;32.678;-85.380;2023-10-19T03:03:30;99019.83;;;17.66;38.22
83483;BME280;73420;32.678;-85.380;2023-10-19T03:05:56;99024.49;;;17.84;38.27
83483;BME280;73420;32.678;-85.380;2023-10-19T03:08:21;99028.56;;;17.58;39.01
83483;BME280;73420;32.678;-85.380;2023-10-19T03:10:47;99031.16;;;17.46;40.09
83483;BME280;73420;32.678;-85.380;2023-10-19T03:13:12;99032.92;;;17.38;38.74
83483;BME280;73420;32.678;-85.380;2023-10-19T03:15:37;99030.07;;;17.84;39.34
83483;BME280;73420;32.678;-85.380;2023-10-19T03:18:03;99028.57;;;17.14;39.74
83483;BME280;73420;32.678;-85.380;2023-10-19T03:20:29;99023.36;;;17.32;39.11
83483;BME280;73420;32.678;-85.380;2023-10-19T03:22:53;99020.89;;;17.40;39.19
83483;BME280;73420;32.678;-85.380;2023-10-19T03:25:19;99016.94;;;17.85;38.54
83483;BME280;73420;32.678;-85.380;2023-10-19T03:27:44;99018.87;;;17.84;38.29
83483;BME280;73420;32.678;-85.380;2023-10-19T03:30:10;99018.84;;;17.85;37.06
83483;BME280;73420;32.678;-85.380;2023-10-19T03:32:35;99017.96;;;17.80;36.76
83483;BME280;73420;32.678;-85.380;2023-10-19T03:35:00;99017.85;;;17.95;35.59
83483;BME280;73420;32.678;-85.380;2023-10-19T03:37:26;99018.00;;;18.12;35.75
83483;BME280;73420;32.678;-85.380;2023-10-19T03:39:51;99015.29;;;18.38;35.36
83483;BME280;73420;32.678;-85.380;2023-10-19T03:42:16;99016.10;;;18.17;34.74
83483;BME280;73420;32.678;-85.380;2023-10-19T03:44:42;99014.23;;;18.61;34.81
83483;BME280;73420;32.678;-85.380;2023-10-19T03:47:07;99014.17;;;18.69;35.05
83483;BME280;73420;32.678;-85.380;2023-10-19T03:49:33;99016.94;;;18.55;35.16
83483;BME280;73420;32.678;-85.380;2023-10-19T03:51:58;99017.66;;;18.67;34.73
83483;BME280;73420;32.678;-85.380;2023-10-19T03:54:23;99021.86;;;18.60;34.91
83483;BME280;73420;32.678;-85.380;2023-10-19T03:56:49;99025.34;;;18.60;34.73
83483;BME280;73420;32.678;-85.380;2023-10-19T03:59:14;99024.86;;;18.40;34.59
83483;BME280;73420;32.678;-85.380;2023-10-19T04:01:39;99022.62;;;18.80;34.51
83483;BME280;73420;32.678;-85.380;2023-10-19T04:04:06;99023.54;;;18.68;35.10
83483;BME280;73420;32.678;-85.380;2023-10-19T04:06:30;99017.29;;;18.77;34.18
83483;BME280;73420;32.678;-85.380;2023-10-19T04:08:56;99014.23;;;18.88;34.07
83483;BME280;73420;32.678;-85.380;2023-10-19T04:11:21;99014.29;;;18.53;34.35
83483;BME280;73420;32.678;-85.380;2023-10-19T04:13:47;99009.54;;;18.76;33.84
83483;BME280;73420;32.678;-85.380;2023-10-19T04:16:12;99009.83;;;18.54;34.45
83483;BME280;73420;32.678;-85.380;2023-10-19T04:18:37;99007.33;;;18.69;34.43
83483;BME280;73420;32.678;-85.380;2023-10-19T04:21:04;99003.75;;;19.06;33.89
83483;BME280;73420;32.678;-85.380;2023-10-19T04:23:29;99004.70;;;18.41;34.64
83483;BME280;73420;32.678;-85.380;2023-10-19T04:25:54;99006.25;;;18.42;33.85
83483;BME280;73420;32.678;-85.380;2023-10-19T04:28:19;99007.22;;;18.83;34.72
83483;BME280;73420;32.678;-85.380;2023-10-19T04:30:45;99008.88;;;18.45;34.73
83483;BME280;73420;32.678;-85.380;2023-10-19T04:33:10;99007.97;;;18.41;34.86
83483;BME280;73420;32.678;-85.380;2023-10-19T04:35:36;99009.87;;;18.47;34.84
83483;BME280;73420;32.678;-85.380;2023-10-19T04:38:04;99007.88;;;18.59;34.90
83483;BME280;73420;32.678;-85.380;2023-10-19T04:40:27;99008.71;;;18.42;35.06
83483;BME280;73420;32.678;-85.380;2023-10-19T04:42:55;99009.67;;;18.36;35.26
83483;BME280;73420;32.678;-85.380;2023-10-19T04:45:19;99009.16;;;18.42;35.57
83483;BME280;73420;32.678;-85.380;2023-10-19T04:47:44;99010.76;;;18.42;35.61
83483;BME280;73420;32.678;-85.380;2023-10-19T04:50:10;99007.28;;;18.52;34.86
83483;BME280;73420;32.678;-85.380;2023-10-19T04:52:34;99008.90;;;18.29;34.92
83483;BME280;73420;32.678;-85.380;2023-10-19T04:55:00;99006.02;;;18.82;33.84
83483;BME280;73420;32.678;-85.380;2023-10-19T04:57:25;99005.07;;;18.13;35.79
83483;BME280;73420;32.678;-85.380;2023-10-19T04:59:51;99006.36;;;18.37;36.01
83483;BME280;73420;32.678;-85.380;2023-10-19T05:02:15;99002.74;;;18.44;34.59
83483;BME280;73420;32.678;-85.380;2023-10-19T05:04:42;99006.63;;;18.18;35.81
83483;BME280;73420;32.678;-85.380;2023-10-19T05:07:06;99007.41;;;18.18;35.47
83483;BME280;73420;32.678;-85.380;2023-10-19T05:09:32;99008.12;;;18.54;34.54
83483;BME280;73420;32.678;-85.380;2023-10-19T05:11:57;99008.56;;;18.16;35.00
83483;BME280;73420;32.678;-85.380;2023-10-19T05:14:23;99008.09;;;18.71;34.35
83483;BME280;73420;32.678;-85.380;2023-10-19T05:16:49;99007.93;;;18.19;35.04
83483;BME280;73420;32.678;-85.380;2023-10-19T05:19:14;99008.48;;;18.03;35.38
83483;BME280;73420;32.678;-85.380;2023-10-19T05:21:39;99009.79;;;18.20;35.20
83483;BME280;73420;32.678;-85.380;2023-10-19T05:24:06;99012.33;;;18.03;35.43
83483;BME280;73420;32.678;-85.380;2023-10-19T05:26:33;99013.16;;;18.30;34.67
83483;BME280;73420;32.678;-85.380;2023-10-19T05:28:56;99014.37;;;18.07;35.71
83483;BME280;73420;32.678;-85.380;2023-10-19T05:31:22;99013.96;;;18.18;35.80
83483;BME280;73420;32.678;-85.380;2023-10-19T05:33:48;99016.90;;;18.15;35.54
83483;BME280;73420;32.678;-85.380;2023-10-19T05:36:13;99019.49;;;17.99;35.87
83483;BME280;73420;32.678;-85.380;2023-10-19T05:38:38;99021.22;;;17.75;36.18
83483;BME280;73420;32.678;-85.380;2023-10-19T05:41:04;99020.01;;;17.68;36.03
83483;BME280;73420;32.678;-85.380;2023-10-19T05:43:29;99023.31;;;18.29;35.71
83483;BME280;73420;32.678;-85.380;2023-10-19T05:45:55;99026.57;;;18.10;36.50
83483;BME280;73420;32.678;-85.380;2023-10-19T05:48:20;99022.45;;;18.68;35.04
83483;BME280;73420;32.678;-85.380;2023-10-19T05:50:45;99023.36;;;18.44;35.53
83483;BME280;73420;32.678;-85.380;2023-10-19T05:53:11;99021.45;;;18.24;35.90
83483;BME280;73420;32.678;-85.380;2023-10-19T05:55:36;99020.28;;;18.20;35.89
83483;BME280;73420;32.678;-85.380;2023-10-19T05:58:02;99023.12;;;17.88;36.50
83483;BME280;73420;32.678;-85.380;2023-10-19T06:00:27;99018.02;;;17.71;36.51
83483;BME280;73420;32.678;-85.380;2023-10-19T06:02:52;99014.02;;;17.73;36.61
83483;BME280;73420;32.678;-85.380;2023-10-19T06:05:19;99014.58;;;17.84;36.31
83483;BME280;73420;32.678;-85.380;2023-10-19T06:07:44;99015.56;;;17.98;36.86
83483;BME280;73420;32.678;-85.380;2023-10-19T06:10:11;99013.10;;;18.09;36.16
83483;BME280;73420;32.678;-85.380;2023-10-19T06:12:34;99013.08;;;18.05;36.73
83483;BME280;73420;32.678;-85.380;2023-10-19T06:15:00;99015.08;;;17.71;37.02
83483;BME280;73420;32.678;-85.380;2023-10-19T06:17:26;99014.49;;;17.72;37.00
83483;BME280;73420;32.678;-85.380;2023-10-19T06:19:50;99014.51;;;17.54;36.64
83483;BME280;73420;32.678;-85.380;2023-10-19T06:22:16;99013.62;;;18.07;35.83
83483;BME280;73420;32.678;-85.380;2023-10-19T06:24:41;99015.14;;;17.91;36.71
83483;BME280;73420;32.678;-85.380;2023-10-19T06:27:06;99011.51;;;17.61;37.02
83483;BME280;73420;32.678;-85.380;2023-10-19T06:29:32;99007.69;;;17.65;37.22
83483;BME280;73420;32.678;-85.380;2023-10-19T06:31:57;99006.09;;;17.76;37.39
83483;BME280;73420;32.678;-85.380;2023-10-19T06:34:23;99003.57;;;17.79;37.76
83483;BME280;73420;32.678;-85.380;2023-10-19T06:36:48;99004.76;;;17.75;37.36
83483;BME280;73420;32.678;-85.380;2023-10-19T06:39:13;99004.95;;;17.31;38.17
83483;BME280;73420;32.678;-85.380;2023-10-19T06:41:39;99001.77;;;17.30;38.31
83483;BME280;73420;32.678;-85.380;2023-10-19T06:44:04;98997.54;;;17.39;37.88
83483;BME280;73420;32.678;-85.380;2023-10-19T06:46:30;98998.36;;;17.04;38.07
83483;BME280;73420;32.678;-85.380;2023-10-19T06:48:55;99001.49;;;17.49;37.59
83483;BME280;73420;32.678;-85.380;2023-10-19T06:51:20;99002.55;;;17.35;38.27
83483;BME280;73420;32.678;-85.380;2023-10-19T06:53:46;99001.00;;;17.19;38.36
83483;BME280;73420;32.678;-85.380;2023-10-19T06:56:11;99002.30;;;16.67;38.57
83483;BME280;73420;32.678;-85.380;2023-10-19T06:58:36;99008.56;;;17.33;37.63
83483;BME280;73420;32.678;-85.380;2023-10-19T07:01:01;99006.04;;;17.53;37.67
83483;BME280;73420;32.678;-85.380;2023-10-19T07:03:27;99003.36;;;17.33;38.22
83483;BME280;73420;32.678;-85.380;2023-10-19T07:05:52;99000.86;;;17.61;38.08
83483;BME280;73420;32.678;-85.380;2023-10-19T07:08:18;98991.68;;;17.15;39.14
83483;BME280;73420;32.678;-85.380;2023-10-19T07:10:44;98986.51;;;16.68;39.04
83483;BME280;73420;32.678;-85.380;2023-10-19T07:13:09;98979.27;;;16.49;39.75
83483;BME280;73420;32.678;-85.380;2023-10-19T07:15:35;98973.42;;;16.68;39.34
83483;BME280;73420;32.678;-85.380;2023-10-19T07:18:00;98972.20;;;16.87;39.02
83483;BME280;73420;32.678;-85.380;2023-10-19T07:20:26;98965.77;;;16.65;39.58
83483;BME280;73420;32.678;-85.380;2023-10-19T07:22:51;98960.13;;;16.50;39.98
83483;BME280;73420;32.678;-85.380;2023-10-19T07:25:16;98959.84;;;16.90;39.21
83483;BME280;73420;32.678;-85.380;2023-10-19T07:27:41;98956.04;;;16.39;39.47
83483;BME280;73420;32.678;-85.380;2023-10-19T07:30:08;98957.91;;;16.60;39.43
83483;BME280;73420;32.678;-85.380;2023-10-19T07:32:32;98957.92;;;16.73;39.57
83483;BME280;73420;32.678;-85.380;2023-10-19T07:34:57;98958.10;;;16.77;39.28
83483;BME280;73420;32.678;-85.380;2023-10-19T07:37:23;98952.25;;;16.88;38.97
83483;BME280;73420;32.678;-85.380;2023-10-19T07:39:49;98948.21;;;16.66;38.69
83483;BME280;73420;32.678;-85.380;2023-10-19T07:42:14;98945.53;;;16.53;38.92
83483;BME280;73420;32.678;-85.380;2023-10-19T07:44:40;98941.99;;;16.29;39.46
83483;BME280;73420;32.678;-85.380;2023-10-19T07:47:05;98944.66;;;16.57;39.79
83483;BME280;73420;32.678;-85.380;2023-10-19T07:49:30;98947.47;;;16.99;39.33
83483;BME280;73420;32.678;-85.380;2023-10-19T07:51:55;98942.97;;;16.08;39.94
83483;BME280;73420;32.678;-85.380;2023-10-19T07:54:21;98945.09;;;16.42;40.01
83483;BME280;73420;32.678;-85.380;2023-10-19T07:56:46;98945.28;;;16.28;39.71
83483;BME280;73420;32.678;-85.380;2023-10-19T07:59:11;98944.17;;;16.48;39.78
83483;BME280;73420;32.678;-85.380;2023-10-19T08:01:36;98943.97;;;16.29;39.96
83483;BME280;73420;32.678;-85.380;2023-10-19T08:04:02;98946.27;;;16.24;40.28
83483;BME280;73420;32.678;-85.380;2023-10-19T08:06:28;98943.37;;;16.25;40.06
83483;BME280;73420;32.678;-85.380;2023-10-19T08:08:53;98939.48;;;16.28;39.82
83483;BME280;73420;32.678;-85.380;2023-10-19T08:11:18;98936.62;;;15.99;40.29
83483;BME280;73420;32.678;-85.380;2023-10-19T08:13:44;98931.90;;;15.88;40.85
83483;BME280;73420;32.678;-85.380;2023-10-19T08:16:09;98930.74;;;15.90;41.06
83483;BME280;73420;32.678;-85.380;2023-10-19T08:18:35;98933.53;;;15.84;40.94
83483;BME280;73420;32.678;-85.380;2023-10-19T08:21:00;98931.63;;;16.22;39.69
83483;BME280;73420;32.678;-85.380;2023-10-19T08:23:25;98931.56;;;16.33;39.54
83483;BME280;73420;32.678;-85.380;2023-10-19T08:25:50;98936.37;;;15.97;40.87
83483;BME280;73420;32.678;-85.380;2023-10-19T08:28:16;98935.30;;;16.08;41.08
83483;BME280;73420;32.678;-85.380;2023-10-19T08:30:42;98935.18;;;16.02;40.63
83483;BME280;73420;32.678;-85.380;2023-10-19T08:33:07;98932.81;;;15.97;40.53
83483;BME280;73420;32.678;-85.380;2023-10-19T08:35:35;98931.50;;;15.60;41.75
83483;BME280;73420;32.678;-85.380;2023-10-19T08:37:58;98929.94;;;15.84;40.59
83483;BME280;73420;32.678;-85.380;2023-10-19T08:40:25;98929.86;;;15.97;40.23
83483;BME280;73420;32.678;-85.380;2023-10-19T08:42:49;98929.64;;;15.74;40.97
83483;BME280;73420;32.678;-85.380;2023-10-19T08:45:15;98924.72;;;15.76;40.94
83483;BME280;73420;32.678;-85.380;2023-10-19T08:47:47;98927.96;;;15.75;40.89
83483;BME280;73420;32.678;-85.380;2023-10-19T08:50:07;98929.42;;;15.62;41.32
83483;BME280;73420;32.678;-85.380;2023-10-19T08:52:31;98931.28;;;15.85;40.92
83483;BME280;73420;32.678;-85.380;2023-10-19T08:54:56;98931.11;;;15.93;40.29
83483;BME280;73420;32.678;-85.380;2023-10-19T08:57:21;98932.11;;;15.52;41.27
83483;BME280;73420;32.678;-85.380;2023-10-19T08:59:47;98933.24;;;15.91;40.66
83483;BME280;73420;32.678;-85.380;2023-10-19T09:02:12;98935.52;;;15.64;42.04
83483;BME280;73420;32.678;-85.380;2023-10-19T09:04:42;98939.66;;;15.69;41.88
83483;BME280;73420;32.678;-85.380;2023-10-19T09:07:03;98941.83;;;15.76;40.14
83483;BME280;73420;32.678;-85.380;2023-10-19T09:09:29;98947.42;;;15.68;41.54
83483;BME280;73420;32.678;-85.380;2023-10-19T09:11:54;98949.04;;;15.68;41.72
83483;BME280;73420;32.678;-85.380;2023-10-19T09:14:30;98949.66;;;15.12;42.44
83483;BME280;73420;32.678;-85.380;2023-10-19T09:16:54;98956.45;;;15.41;43.28
83483;BME280;73420;32.678;-85.380;2023-10-19T09:19:11;98956.99;;;15.53;41.59
83483;BME280;73420;32.678;-85.380;2023-10-19T09:21:36;98961.41;;;15.32;42.80
83483;BME280;73420;32.678;-85.380;2023-10-19T09:24:01;98964.80;;;15.17;43.46
83483;BME280;73420;32.678;-85.380;2023-10-19T09:26:27;98969.38;;;15.41;41.34
83483;BME280;73420;32.678;-85.380;2023-10-19T09:28:53;98972.82;;;15.35;41.44
83483;BME280;73420;32.678;-85.380;2023-10-19T09:31:19;98975.83;;;15.27;42.71
83483;BME280;73420;32.678;-85.380;2023-10-19T09:33:44;98978.70;;;15.80;43.12
83483;BME280;73420;32.678;-85.380;2023-10-19T09:36:10;98981.46;;;15.38;43.76
83483;BME280;73420;32.678;-85.380;2023-10-19T09:38:34;98982.63;;;15.34;41.76
83483;BME280;73420;32.678;-85.380;2023-10-19T09:40:59;98981.57;;;15.67;42.74
83483;BME280;73420;32.678;-85.380;2023-10-19T09:43:33;98976.56;;;14.93;43.04
83483;BME280;73420;32.678;-85.380;2023-10-19T09:45:51;98977.29;;;15.25;41.92
83483;BME280;73420;32.678;-85.380;2023-10-19T09:48:15;98975.20;;;15.47;43.18
83483;BME280;73420;32.678;-85.380;2023-10-19T09:50:41;98974.65;;;15.08;42.76
83483;BME280;73420;32.678;-85.380;2023-10-19T09:53:06;98969.72;;;14.85;43.11
83483;BME280;73420;32.678;-85.380;2023-10-19T09:55:34;98973.08;;;15.39;42.27
83483;BME280;73420;32.678;-85.380;2023-10-19T09:58:02;98973.80;;;15.10;42.83
83483;BME280;73420;32.678;-85.380;2023-10-19T10:00:22;98972.94;;;15.39;41.95
83483;BME280;73420;32.678;-85.380;2023-10-19T10:02:47;98970.88;;;14.95;42.83
83483;BME280;73420;32.678;-85.380;2023-10-19T10:07:39;98972.78;;;14.91;42.76
83483;BME280;73420;32.678;-85.380;2023-10-19T10:10:05;98976.55;;;14.80;42.34
83483;BME280;73420;32.678;-85.380;2023-10-19T10:12:29;98982.95;;;15.56;43.01
83483;BME280;73420;32.678;-85.380;2023-10-19T10:14:57;98989.13;;;15.30;42.12
83483;BME280;73420;32.678;-85.380;2023-10-19T10:17:20;98991.28;;;14.94;42.24
83483;BME280;73420;32.678;-85.380;2023-10-19T10:19:45;98992.83;;;14.93;43.12
83483;BME280;73420;32.678;-85.380;2023-10-19T10:22:11;98989.43;;;15.02;42.63
83483;BME280;73420;32.678;-85.380;2023-10-19T10:24:39;98991.67;;;15.47;43.41
83483;BME280;73420;32.678;-85.380;2023-10-19T10:27:01;98990.26;;;15.10;42.81
83483;BME280;73420;32.678;-85.380;2023-10-19T10:29:27;98990.54;;;15.48;42.43
83483;BME280;73420;32.678;-85.380;2023-10-19T10:31:57;98986.26;;;15.29;43.24
83483;BME280;73420;32.678;-85.380;2023-10-19T10:36:58;98985.63;;;15.36;42.05
83483;BME280;73420;32.678;-85.380;2023-10-19T10:39:09;98987.85;;;15.17;43.02
83483;BME280;73420;32.678;-85.380;2023-10-19T10:41:33;98986.09;;;15.22;43.14
83483;BME280;73420;32.678;-85.380;2023-10-19T10:43:59;98987.32;;;15.06;43.97
83483;BME280;73420;32.678;-85.380;2023-10-19T10:46:25;98991.61;;;15.39;44.08
83483;BME280;73420;32.678;-85.380;2023-10-19T10:48:50;98996.40;;;15.44;42.74
83483;BME280;73420;32.678;-85.380;2023-10-19T10:51:16;98998.03;;;15.21;42.66
83483;BME280;73420;32.678;-85.380;2023-10-19T10:53:41;99002.84;;;15.48;42.04
83483;BME280;73420;32.678;-85.380;2023-10-19T10:56:06;99004.96;;;15.50;43.06
83483;BME280;73420;32.678;-85.380;2023-10-19T10:58:31;99006.95;;;15.05;42.59
83483;BME280;73420;32.678;-85.380;2023-10-19T11:00:57;99012.56;;;15.33;42.67
83483;BME280;73420;32.678;-85.380;2023-10-19T11:03:22;99014.26;;;15.11;42.72
83483;BME280;73420;32.678;-85.380;2023-10-19T11:05:48;99013.89;;;15.27;44.62
83483;BME280;73420;32.678;-85.380;2023-10-19T11:08:14;99018.22;;;14.65;44.61
83483;BME280;73420;32.678;-85.380;2023-10-19T11:10:40;99013.83;;;15.24;43.04
83483;BME280;73420;32.678;-85.380;2023-10-19T11:13:05;99014.66;;;15.15;43.61
83483;BME280;73420;32.678;-85.380;2023-10-19T11:15:29;99010.15;;;15.11;43.08
83483;BME280;73420;32.678;-85.380;2023-10-19T11:17:55;99007.85;;;14.94;42.69
83483;BME280;73420;32.678;-85.380;2023-10-19T11:20:23;99010.11;;;14.86;43.45
83483;BME280;73420;32.678;-85.380;2023-10-19T11:22:48;99006.08;;;15.02;44.36
83483;BME280;73420;32.678;-85.380;2023-10-19T11:25:18;99002.07;;;15.44;43.72
83483;BME280;73420;32.678;-85.380;2023-10-19T11:27:37;99004.08;;;14.77;43.70
83483;BME280;73420;32.678;-85.380;2023-10-19T11:30:03;99001.07;;;14.94;43.86
83483;BME280;73420;32.678;-85.380;2023-10-19T11:32:36;98994.94;;;14.90;44.63
83483;BME280;73420;32.678;-85.380;2023-10-19T11:34:54;98990.18;;;14.98;43.46
83483;BME280;73420;32.678;-85.380;2023-10-19T11:37:18;98990.84;;;15.17;44.66
83483;BME280;73420;32.678;-85.380;2023-10-19T11:39:44;98991.28;;;15.29;44.62
83483;BME280;73420;32.678;-85.380;2023-10-19T11:42:09;98987.27;;;14.82;43.69
83483;BME280;73420;32.678;-85.380;2023-10-19T11:44:38;98984.85;;;14.95;44.67
83483;BME280;73420;32.678;-85.380;2023-10-19T11:47:00;98985.10;;;15.12;44.55
83483;BME280;73420;32.678;-85.380;2023-10-19T11:49:26;98983.55;;;15.31;44.31
83483;BME280;73420;32.678;-85.380;2023-10-19T11:51:51;98985.81;;;15.27;44.11
83483;BME280;73420;32.678;-85.380;2023-10-19T11:54:16;98983.22;;;14.95;44.28
83483;BME280;73420;32.678;-85.380;2023-10-19T11:56:42;98985.36;;;15.24;44.41
83483;BME280;73420;32.678;-85.380;2023-10-19T11:59:07;98986.68;;;15.17;44.50
83483;BME280;73420;32.678;-85.380;2023-10-19T12:01:32;98987.19;;;15.31;44.27
83483;BME280;73420;32.678;-85.380;2023-10-19T12:03:57;98991.73;;;15.69;44.21
83483;BME280;73420;32.678;-85.380;2023-10-19T12:06:23;98998.89;;;15.57;45.04
83483;BME280;73420;32.678;-85.380;2023-10-19T12:08:50;98999.27;;;15.38;44.91
83483;BME280;73420;32.678;-85.380;2023-10-19T12:11:14;99000.66;;;15.50;44.16
83483;BME280;73420;32.678;-85.380;2023-10-19T12:13:39;99005.82;;;15.79;44.05
83483;BME280;73420;32.678;-85.380;2023-10-19T12:16:05;99007.14;;;15.70;43.82
83483;BME280;73420;32.678;-85.380;2023-10-19T12:18:31;99007.91;;;15.72;44.52
83483;BME280;73420;32.678;-85.380;2023-10-19T12:20:56;99010.07;;;16.08;43.90
83483;BME280;73420;32.678;-85.380;2023-10-19T12:23:22;99006.46;;;16.15;44.31
83483;BME280;73420;32.678;-85.380;2023-10-19T12:25:48;99007.64;;;16.46;43.85
83483;BME280;73420;32.678;-85.380;2023-10-19T12:28:13;99006.89;;;16.48;43.40
83483;BME280;73420;32.678;-85.380;2023-10-19T12:30:40;99006.89;;;16.82;43.41
83483;BME280;73420;32.678;-85.380;2023-10-19T12:33:05;99005.76;;;17.07;43.09
83483;BME280;73420;32.678;-85.380;2023-10-19T12:35:29;99006.26;;;17.19;43.50